Time;durP1;ratioP1;P1;durP2;ratioP2;P2;SDS_P1;SDS_P2;PMS_P1;PMS_P2;Temp;Humidity;BMP_temperature;BMP_pressure;BME280_temperature;BME280_humidity;BME280_pressure;Samples;Min_cycle;Max_cycle;Signal;HPM_P1;HPM_P2
2021/04/22 00:00:25;;;;;;;15.02;12.07;;;4.70;99.90;;;;;;5040348;28;20051;-75
2021/04/22 00:02:53;;;;;;;14.70;12.93;;;4.70;99.90;;;;;;5039318;28;20053;-75
2021/04/22 00:05:30;;;;;;;15.88;10.20;;;4.90;99.50;;;;;;5041234;28;20057;-75
2021/04/22 00:07:58;;;;;;;19.25;12.85;;;4.50;99.90;;;;;;5040212;28;20046;-75
2021/04/22 00:10:31;;;;;;;17.92;13.02;;;4.30;99.90;;;;;;5038053;28;20057;-75
2021/04/22 00:12:58;;;;;;;17.50;12.70;;;5.00;99.90;;;;;;5039505;28;20045;-75
2021/04/22 00:15:25;;;;;;;20.55;14.27;;;5.30;99.90;;;;;;5040442;28;20033;-75
2021/04/22 00:17:55;;;;;;;26.75;12.90;;;5.60;99.90;;;;;;5039462;28;20049;-75
2021/04/22 00:20:23;;;;;;;21.40;12.93;;;5.80;99.90;;;;;;5040766;28;20462;-75
2021/04/22 00:22:51;;;;;;;21.58;13.50;;;5.70;99.90;;;;;;5040358;28;20622;-75
2021/04/22 00:25:18;;;;;;;22.13;15.27;;;5.50;99.90;;;;;;5040424;28;20057;-75
2021/04/22 00:27:46;;;;;;;16.90;11.80;;;5.50;99.90;;;;;;5037193;28;20055;-75
2021/04/22 00:30:16;;;;;;;19.17;13.40;;;5.50;99.90;;;;;;5037867;28;20053;-75
2021/04/22 00:32:43;;;;;;;16.05;12.95;;;5.50;99.90;;;;;;5040459;28;20052;-75
2021/04/22 00:35:14;;;;;;;16.55;11.18;;;5.80;99.90;;;;;;5037923;28;20056;-75
2021/04/22 00:37:41;;;;;;;14.05;11.13;;;5.90;99.90;;;;;;5040475;28;20057;-75
2021/04/22 00:40:15;;;;;;;20.17;13.25;;;6.00;99.90;;;;;;5023554;28;20034;-75
2021/04/22 00:42:42;;;;;;;14.82;12.20;;;6.20;99.90;;;;;;5022287;28;20410;-75
2021/04/22 00:45:11;;;;;;;21.77;14.07;;;6.20;99.90;;;;;;5024463;28;20133;-75
2021/04/22 00:47:38;;;;;;;19.05;14.07;;;6.20;99.90;;;;;;5023551;28;20049;-75
2021/04/22 00:50:21;;;;;;;19.63;14.95;;;6.20;99.90;;;;;;5028633;28;20064;-77
2021/04/22 00:52:52;;;;;;;18.15;13.90;;;6.20;99.90;;;;;;5033052;28;20433;-78
2021/04/22 00:55:20;;;;;;;18.42;14.00;;;6.20;99.90;;;;;;5031529;28;20049;-77
2021/04/22 00:57:49;;;;;;;18.10;11.93;;;6.20;99.90;;;;;;5032777;28;20034;-75
2021/04/22 01:00:19;;;;;;;29.52;17.75;;;6.30;99.90;;;;;;5032420;28;20049;-75
2021/04/22 01:02:47;;;;;;;19.50;14.00;;;6.30;99.90;;;;;;5032337;28;20037;-76
2021/04/22 01:05:21;;;;;;;21.15;15.50;;;6.20;99.90;;;;;;5032839;28;20060;-75
2021/04/22 01:07:48;;;;;;;23.58;17.23;;;6.30;99.90;;;;;;5040315;28;20509;-75
2021/04/22 01:10:18;;;;;;;19.65;14.35;;;6.20;99.90;;;;;;5042527;28;20490;-75
2021/04/22 01:12:47;;;;;;;21.98;14.30;;;6.10;99.90;;;;;;5043926;28;20052;-75
2021/04/22 01:15:23;;;;;;;18.55;14.20;;;6.00;99.90;;;;;;5041799;28;20045;-75
2021/04/22 01:17:52;;;;;;;19.67;13.98;;;6.00;99.90;;;;;;5039563;28;20479;-75
2021/04/22 01:20:28;;;;;;;21.50;15.80;;;5.90;99.90;;;;;;5025403;28;20410;-75
2021/04/22 01:22:58;;;;;;;23.02;15.60;;;6.00;99.90;;;;;;5022736;28;20797;-75
2021/04/22 01:25:33;;;;;;;23.13;15.65;;;6.10;99.90;;;;;;5020641;28;20058;-75
2021/04/22 01:28:03;;;;;;;22.73;15.60;;;6.20;99.90;;;;;;5023082;28;20045;-75
2021/04/22 01:30:36;;;;;;;20.65;15.13;;;6.20;99.90;;;;;;5025045;28;20049;-76
2021/04/22 01:33:04;;;;;;;23.20;14.80;;;6.20;99.90;;;;;;5030830;28;20065;-75
2021/04/22 01:35:41;;;;;;;21.17;16.10;;;6.30;99.90;;;;;;5031194;28;20042;-75
2021/04/22 01:38:10;;;;;;;25.15;17.73;;;6.30;99.90;;;;;;5033108;28;20054;-76
2021/04/22 01:40:39;;;;;;;21.77;15.73;;;6.30;99.90;;;;;;5042537;28;20052;-75
2021/04/22 01:43:07;;;;;;;23.67;16.40;;;6.40;99.90;;;;;;5031012;28;20042;-75
2021/04/22 01:45:35;;;;;;;19.05;14.10;;;6.40;99.90;;;;;;5022523;28;20394;-75
2021/04/22 01:48:03;;;;;;;28.23;18.13;;;6.50;99.90;;;;;;5022886;28;20087;-75
2021/04/22 01:50:33;;;;;;;29.88;18.88;;;6.50;99.90;;;;;;5023751;28;20061;-75
2021/04/22 01:53:01;;;;;;;21.02;15.32;;;6.50;99.90;;;;;;5022739;28;20050;-75
2021/04/22 01:55:35;;;;;;;21.15;14.55;;;6.40;99.90;;;;;;5022975;28;20037;-76
2021/04/22 01:58:04;;;;;;;22.67;15.65;;;6.40;99.90;;;;;;5022877;28;20403;-75
2021/04/22 02:00:39;;;;;;;20.63;14.70;;;6.40;99.90;;;;;;5022941;28;20057;-75
2021/04/22 02:03:07;;;;;;;19.42;14.73;;;6.40;99.90;;;;;;5022299;28;20049;-75
2021/04/22 02:05:35;;;;;;;22.73;16.95;;;6.50;99.90;;;;;;5022113;28;20058;-75
2021/04/22 02:08:05;;;;;;;22.30;14.07;;;6.40;99.90;;;;;;5020947;28;20044;-75
2021/04/22 02:10:32;;;;;;;28.23;16.40;;;6.50;99.90;;;;;;5022231;28;20839;-75
2021/04/22 02:13:00;;;;;;;21.17;16.88;;;6.60;99.90;;;;;;5022424;28;20065;-75
2021/04/22 02:15:29;;;;;;;19.88;15.13;;;6.80;99.90;;;;;;5020183;28;20045;-75
2021/04/22 02:17:58;;;;;;;18.58;14.60;;;6.80;99.90;;;;;;5021308;28;20057;-75
2021/04/22 02:20:26;;;;;;;18.40;14.80;;;6.60;99.90;;;;;;5025866;28;20056;-75
2021/04/22 02:22:54;;;;;;;19.35;14.60;;;6.40;99.90;;;;;;5021811;28;20045;-75
2021/04/22 02:25:25;;;;;;;19.67;13.60;;;6.20;99.90;;;;;;5022727;28;20392;-76
2021/04/22 02:27:53;;;;;;;22.15;14.52;;;6.00;99.90;;;;;;5022143;28;20049;-75
2021/04/22 02:30:26;;;;;;;21.75;15.93;;;5.90;99.90;;;;;;5021610;28;20041;-75
2021/04/22 02:32:54;;;;;;;20.23;14.93;;;5.50;99.90;;;;;;5022349;28;20132;-75
2021/04/22 02:35:25;;;;;;;18.58;14.98;;;5.60;99.90;;;;;;5019714;28;20037;-76
2021/04/22 02:37:54;;;;;;;20.65;13.45;;;5.70;99.90;;;;;;5025371;28;20041;-75
2021/04/22 02:40:25;;;;;;;23.58;14.43;;;5.80;99.90;;;;;;5021462;28;20625;-75
2021/04/22 02:42:55;;;;;;;22.17;16.73;;;5.80;99.90;;;;;;5027199;28;20048;-75
2021/04/22 02:45:28;;;;;;;17.77;12.90;;;5.90;99.90;;;;;;5041996;28;20038;-75
2021/04/22 02:47:57;;;;;;;14.73;11.65;;;6.00;99.90;;;;;;5024951;28;20049;-75
2021/04/22 02:50:29;;;;;;;18.48;11.98;;;6.10;99.90;;;;;;5024652;28;20466;-75
2021/04/22 02:52:56;;;;;;;16.42;13.32;;;6.20;99.40;;;;;;5023624;28;20046;-75
2021/04/22 02:55:24;;;;;;;16.38;10.90;;;6.30;99.30;;;;;;5025056;28;20037;-75
2021/04/22 02:58:12;;;;;;;15.68;11.38;;;6.30;99.20;;;;;;5026368;28;20036;-76
2021/04/22 03:00:40;;;;;;;19.58;12.82;;;6.20;99.10;;;;;;5028999;28;20049;-76
2021/04/22 03:03:08;;;;;;;15.50;11.73;;;6.20;99.10;;;;;;5030097;28;20037;-75
2021/04/22 03:05:37;;;;;;;13.68;11.65;;;6.20;99.10;;;;;;5030846;28;20053;-75
2021/04/22 03:08:05;;;;;;;15.05;10.60;;;6.20;99.00;;;;;;5030332;28;20042;-75
2021/04/22 03:10:34;;;;;;;13.98;10.57;;;6.20;98.90;;;;;;5032806;28;20392;-76
2021/04/22 03:13:02;;;;;;;16.58;12.30;;;6.00;98.70;;;;;;5040080;28;20074;-75
2021/04/22 03:15:30;;;;;;;14.40;10.60;;;5.70;99.80;;;;;;5030119;28;20041;-75
2021/04/22 03:17:57;;;;;;;19.08;12.85;;;5.50;99.90;;;;;;5020637;28;20057;-75
2021/04/22 03:20:25;;;;;;;18.48;13.45;;;5.30;99.60;;;;;;5026705;28;20538;-75
2021/04/22 03:22:53;;;;;;;15.60;12.85;;;5.10;99.90;;;;;;5029352;28;20042;-75
2021/04/22 03:25:22;;;;;;;16.63;11.50;;;5.10;99.90;;;;;;5020576;28;20065;-75
2021/04/22 03:27:51;;;;;;;17.27;13.02;;;5.20;99.90;;;;;;5019859;28;20048;-75
2021/04/22 03:30:23;;;;;;;17.23;11.35;;;4.90;99.90;;;;;;5020610;28;20050;-76
2021/04/22 03:32:51;;;;;;;19.48;10.80;;;4.70;99.90;;;;;;5022410;28;20065;-75
2021/04/22 03:35:19;;;;;;;21.05;10.95;;;4.50;99.90;;;;;;5021993;28;20045;-76
2021/04/22 03:37:47;;;;;;;16.00;12.02;;;4.30;99.90;;;;;;5023242;28;20053;-75
2021/04/22 03:40:16;;;;;;;13.52;10.82;;;4.20;99.90;;;;;;5019638;28;20042;-75
2021/04/22 03:42:44;;;;;;;20.63;13.93;;;4.20;99.90;;;;;;5019280;28;20505;-75
2021/04/22 03:45:12;;;;;;;16.48;10.95;;;4.20;99.90;;;;;;5021359;28;20053;-75
2021/04/22 03:47:41;;;;;;;21.40;13.38;;;4.10;99.90;;;;;;5019047;28;20048;-75
2021/04/22 03:50:10;;;;;;;16.13;13.93;;;4.10;99.90;;;;;;5021493;28;20060;-75
2021/04/22 03:52:38;;;;;;;17.42;11.70;;;4.20;99.90;;;;;;5020490;28;20046;-75
2021/04/22 03:55:08;;;;;;;14.07;12.07;;;4.20;99.90;;;;;;5023675;28;20509;-75
2021/04/22 03:57:36;;;;;;;14.57;11.80;;;4.30;99.90;;;;;;5020198;28;20053;-75
2021/04/22 04:00:06;;;;;;;14.50;12.48;;;4.30;99.90;;;;;;5021840;28;20482;-75
2021/04/22 04:02:34;;;;;;;17.98;15.10;;;4.20;99.90;;;;;;5020775;28;20052;-75
2021/04/22 04:05:03;;;;;;;12.27;8.98;;;4.20;99.90;;;;;;5021199;28;20054;-75
2021/04/22 04:07:30;;;;;;;14.48;11.55;;;4.20;99.90;;;;;;5019178;28;20037;-75
2021/04/22 04:09:57;;;;;;;17.33;11.82;;;3.90;99.90;;;;;;5022025;28;20060;-75
2021/04/22 04:12:27;;;;;;;17.70;11.35;;;3.70;99.90;;;;;;5018039;28;20048;-75
2021/04/22 04:14:55;;;;;;;18.77;11.95;;;3.70;99.90;;;;;;5023226;28;20049;-75
2021/04/22 04:17:23;;;;;;;15.73;11.57;;;3.70;99.90;;;;;;5025345;28;20062;-75
2021/04/22 04:19:51;;;;;;;16.17;11.50;;;3.80;99.90;;;;;;5025746;28;20049;-75
2021/04/22 04:22:19;;;;;;;14.32;12.05;;;3.70;99.90;;;;;;5025469;28;20399;-75
2021/04/22 04:24:46;;;;;;;10.98;9.00;;;3.50;99.90;;;;;;5021578;28;20042;-75
2021/04/22 04:27:17;;;;;;;16.38;10.90;;;3.40;99.90;;;;;;5025688;28;20508;-75
2021/04/22 04:29:45;;;;;;;19.48;14.55;;;3.40;99.90;;;;;;5022695;28;20045;-75
2021/04/22 04:32:12;;;;;;;20.10;16.60;;;3.70;99.90;;;;;;5024085;28;20046;-75
2021/04/22 04:34:39;;;;;;;22.33;13.70;;;3.90;99.90;;;;;;5021537;28;20050;-75
2021/04/22 04:37:07;;;;;;;22.42;15.80;;;4.00;99.90;;;;;;5024776;28;20052;-75
2021/04/22 04:39:34;;;;;;;19.27;12.68;;;4.00;99.90;;;;;;5025367;28;20053;-76
2021/04/22 04:42:02;;;;;;;18.80;13.10;;;3.80;99.90;;;;;;5022571;28;20057;-76
2021/04/22 04:44:29;;;;;;;15.38;9.70;;;3.70;99.90;;;;;;5024410;28;20045;-77
2021/04/22 04:46:56;;;;;;;13.38;11.60;;;3.70;99.90;;;;;;5023202;28;20407;-77
2021/04/22 04:49:24;;;;;;;13.48;9.02;;;3.70;99.90;;;;;;5022745;28;20053;-76
2021/04/22 04:51:51;;;;;;;16.50;9.45;;;4.20;99.90;;;;;;5023733;28;20042;-76
2021/04/22 04:54:19;;;;;;;15.90;10.45;;;4.50;99.90;;;;;;5030714;28;20040;-74
2021/04/22 04:56:46;;;;;;;13.68;9.82;;;4.90;99.90;;;;;;5044469;28;20937;-76
2021/04/22 04:59:13;;;;;;;19.27;11.90;;;5.30;99.90;;;;;;5032738;28;20172;-76
2021/04/22 05:01:41;;;;;;;14.52;10.38;;;5.60;99.90;;;;;;5023082;28;20065;-76
2021/04/22 05:04:08;;;;;;;16.92;11.05;;;5.80;99.90;;;;;;5031658;28;20042;-76
2021/04/22 05:06:38;;;;;;;13.10;11.27;;;5.90;99.90;;;;;;5031507;28;20056;-77
2021/04/22 05:09:06;;;;;;;13.02;11.52;;;6.00;99.90;;;;;;5031140;28;20058;-77
2021/04/22 05:11:33;;;;;;;17.80;11.60;;;6.00;99.90;;;;;;5031641;28;20044;-77
2021/04/22 05:14:00;;;;;;;12.23;9.27;;;6.10;99.90;;;;;;5032445;28;20053;-77
2021/04/22 05:16:28;;;;;;;17.05;11.93;;;6.10;99.90;;;;;;5033305;28;20053;-77
2021/04/22 05:18:55;;;;;;;12.90;10.40;;;6.20;99.90;;;;;;5030516;28;20402;-77
2021/04/22 05:21:22;;;;;;;11.80;9.32;;;6.30;99.90;;;;;;5033035;28;20045;-77
2021/04/22 05:23:50;;;;;;;12.80;9.20;;;6.50;99.90;;;;;;5032121;28;20034;-77
2021/04/22 05:26:21;;;;;;;10.02;9.10;;;6.70;99.90;;;;;;5032516;28;20064;-77
2021/04/22 05:28:49;;;;;;;10.50;9.52;;;6.80;99.90;;;;;;5032070;28;20050;-77
2021/04/22 05:31:16;;;;;;;11.60;8.95;;;6.70;99.70;;;;;;5032094;28;20050;-77
2021/04/22 05:33:44;;;;;;;14.55;10.45;;;6.70;99.80;;;;;;5030509;28;20402;-77
2021/04/22 05:36:11;;;;;;;14.45;9.30;;;6.70;99.90;;;;;;5029906;28;20366;-77
2021/04/22 05:38:39;;;;;;;17.80;12.35;;;6.70;99.90;;;;;;5032386;28;20030;-77
2021/04/22 05:41:07;;;;;;;12.95;11.02;;;6.80;99.90;;;;;;5032669;28;20045;-76
2021/04/22 05:43:34;;;;;;;14.98;10.85;;;6.80;99.90;;;;;;5031095;28;20819;-77
2021/04/22 05:46:02;;;;;;;14.48;9.32;;;6.90;99.70;;;;;;5029479;28;20061;-78
2021/04/22 05:48:30;;;;;;;13.63;10.63;;;7.00;99.90;;;;;;5031632;28;20056;-77
2021/04/22 05:50:58;;;;;;;19.13;11.68;;;7.10;99.80;;;;;;5031808;28;20045;-80
2021/04/22 05:53:26;;;;;;;13.23;9.95;;;7.30;99.60;;;;;;5032082;28;20084;-77
2021/04/22 05:55:53;;;;;;;14.25;10.27;;;7.50;98.80;;;;;;5031559;28;20052;-77
2021/04/22 05:58:21;;;;;;;14.73;8.90;;;7.60;99.50;;;;;;5031489;28;20041;-77
2021/04/22 06:00:48;;;;;;;12.05;8.40;;;7.80;98.50;;;;;;5030642;28;20049;-78
2021/04/22 06:03:16;;;;;;;15.80;9.63;;;7.80;98.00;;;;;;5029245;28;20042;-77
2021/04/22 06:05:44;;;;;;;12.70;8.90;;;8.00;97.50;;;;;;5027442;28;20053;-78
2021/04/22 06:08:11;;;;;;;13.32;9.15;;;8.10;97.40;;;;;;5028421;28;20407;-78
2021/04/22 06:10:40;;;;;;;12.23;9.23;;;8.20;98.30;;;;;;5034463;28;20051;-78
2021/04/22 06:13:08;;;;;;;12.77;10.45;;;8.20;97.90;;;;;;5044310;28;20049;-78
2021/04/22 06:15:36;;;;;;;13.35;10.15;;;8.10;98.10;;;;;;5034209;28;20509;-78
2021/04/22 06:18:04;;;;;;;14.43;10.20;;;8.20;97.70;;;;;;5025219;28;20053;-79
2021/04/22 06:20:34;;;;;;;13.38;10.80;;;8.40;97.40;;;;;;5029716;28;20054;-79
2021/04/22 06:23:25;;;;;;;16.88;9.75;;;8.30;97.70;;;;;;5015658;28;20033;-79
2021/04/22 06:25:54;;;;;;;15.05;10.23;;;8.30;97.50;;;;;;5033234;28;20049;-82
2021/04/22 06:28:23;;;;;;;16.10;11.60;;;8.20;98.10;;;;;;5032714;28;20046;-81
2021/04/22 06:30:52;;;;;;;13.43;11.10;;;8.20;98.00;;;;;;5027027;28;20049;-78
2021/04/22 06:33:20;;;;;;;11.50;9.32;;;8.40;97.30;;;;;;5004680;28;20434;-80
2021/04/22 06:35:48;;;;;;;15.80;10.60;;;8.50;96.70;;;;;;5018230;28;20042;-79
2021/04/22 06:38:16;;;;;;;16.20;9.52;;;8.90;95.80;;;;;;5004390;28;20057;-79
2021/04/22 06:40:43;;;;;;;15.68;10.60;;;9.00;95.90;;;;;;5022282;28;20046;-82
2021/04/22 06:43:13;;;;;;;43.05;11.93;;;9.30;95.60;;;;;;5028705;28;20045;-80
2021/04/22 06:45:43;;;;;;;25.02;11.63;;;9.40;95.60;;;;;;5042641;28;20056;-83
2021/04/22 06:48:13;;;;;;;;;;;9.20;95.40;;;;;;5044100;28;20052;-82
2021/04/22 06:50:43;;;;;;;12.95;9.27;;;8.80;95.40;;;;;;5048159;28;19920;-79
2021/04/22 06:53:13;;;;;;;16.30;9.15;;;8.70;95.80;;;;;;5045207;28;20060;-80
2021/04/22 06:55:42;;;;;;;14.00;9.83;;;8.60;96.10;;;;;;5040436;28;20048;-78
2021/04/22 06:58:12;;;;;;;13.43;9.73;;;8.60;96.10;;;;;;5040158;28;20790;-78
2021/04/22 07:00:44;;;;;;;13.95;11.68;;;8.70;96.00;;;;;;5039089;28;20049;-78
2021/04/22 07:03:13;;;;;;;13.35;10.10;;;9.10;94.40;;;;;;5043916;28;20048;-77
2021/04/22 07:05:41;;;;;;;10.82;8.60;;;9.60;92.90;;;;;;5039122;28;20044;-78
2021/04/22 07:08:09;;;;;;;11.65;8.43;;;10.00;92.20;;;;;;5039820;28;20064;-78
2021/04/22 07:10:38;;;;;;;12.02;9.23;;;10.20;92.50;;;;;;5038113;28;20040;-78
2021/04/22 07:13:09;;;;;;;18.30;11.93;;;10.20;92.30;;;;;;5037650;28;20045;-77
2021/04/22 07:15:37;;;;;;;11.05;8.93;;;10.50;92.40;;;;;;5040339;28;20048;-78
2021/04/22 07:18:08;;;;;;;13.65;9.80;;;10.40;92.70;;;;;;5039184;28;20044;-79
2021/04/22 07:20:36;;;;;;;12.85;11.32;;;10.10;92.60;;;;;;5043172;28;20063;-77
2021/04/22 07:23:04;;;;;;;19.98;11.02;;;10.20;93.40;;;;;;5041336;28;20422;-78
2021/04/22 07:25:34;;;;;;;16.10;10.70;;;10.50;92.30;;;;;;5041255;28;20053;-77
2021/04/22 07:28:06;;;;;;;17.53;11.27;;;11.10;92.10;;;;;;5039381;28;20053;-77
2021/04/22 07:30:38;;;;;;;16.15;10.02;;;11.10;91.80;;;;;;5060805;28;20052;-77
2021/04/22 07:33:07;;;;;;;13.75;10.90;;;10.60;92.70;;;;;;5041915;28;20058;-78
2021/04/22 07:35:36;;;;;;;14.02;12.10;;;10.60;93.00;;;;;;5040039;28;20048;-78
2021/04/22 07:38:09;;;;;;;15.10;11.50;;;10.10;93.30;;;;;;5038719;28;20060;-77
2021/04/22 07:40:37;;;;;;;12.98;10.70;;;10.10;94.70;;;;;;5040301;28;20067;-77
2021/04/22 07:43:04;;;;;;;16.85;11.27;;;10.10;94.10;;;;;;5040965;28;20480;-78
2021/04/22 07:45:35;;;;;;;16.67;11.55;;;10.00;93.80;;;;;;5041081;28;20509;-77
2021/04/22 07:48:04;;;;;;;14.75;13.10;;;10.00;94.00;;;;;;5039132;28;20075;-77
2021/04/22 07:50:33;;;;;;;18.08;12.88;;;10.10;95.00;;;;;;5043145;28;20767;-78
2021/04/22 07:53:05;;;;;;;18.75;12.50;;;10.40;93.20;;;;;;5039351;28;20056;-77
2021/04/22 07:55:34;;;;;;;;;;;10.40;94.40;;;;;;5039482;28;20041;-78
2021/04/22 07:58:03;;;;;;;18.38;13.32;;;10.20;94.00;;;;;;5038946;28;19921;-78
2021/04/22 08:00:32;;;;;;;17.67;12.98;;;10.20;94.00;;;;;;5040561;28;20045;-78
2021/04/22 08:03:02;;;;;;;19.65;15.15;;;11.10;92.70;;;;;;5039226;28;20041;-78
2021/04/22 08:05:35;;;;;;;19.42;14.23;;;12.10;90.40;;;;;;5040199;28;20056;-79
2021/04/22 08:08:12;;;;;;;20.95;14.85;;;11.40;89.80;;;;;;5039449;28;20053;-78
2021/04/22 08:10:46;;;;;;;23.17;17.58;;;10.70;91.10;;;;;;5021957;28;20677;-78
2021/04/22 08:13:16;;;;;;;18.17;14.88;;;10.30;91.90;;;;;;5023838;28;20045;-78
2021/04/22 08:15:46;;;;;;;23.10;16.60;;;10.50;92.00;;;;;;5038483;28;20044;-78
2021/04/22 08:18:14;;;;;;;21.45;18.63;;;11.60;88.40;;;;;;5039535;28;20706;-78
2021/04/22 08:20:43;;;;;;;17.45;13.93;;;12.00;88.00;;;;;;5041601;28;20056;-79
2021/04/22 08:23:12;;;;;;;19.80;15.00;;;12.90;85.70;;;;;;5040530;28;20033;-79
2021/04/22 08:26:04;;;;;;;20.90;17.30;;;12.60;81.70;;;;;;5037939;28;20467;-78
2021/04/22 08:28:34;;;;;;;26.65;20.08;;;12.40;83.60;;;;;;5040012;28;20041;-78
2021/04/22 08:31:20;;;;;;;15.88;14.07;;;12.00;87.30;;;;;;5038719;28;20053;-80
2021/04/22 08:33:52;;;;;;;22.42;19.90;;;11.60;87.20;;;;;;5040001;28;20046;-79
2021/04/22 08:36:22;;;;;;;20.88;15.30;;;11.70;86.60;;;;;;5038850;28;20038;-80
2021/04/22 08:38:50;;;;;;;16.42;14.82;;;11.40;90.50;;;;;;5037901;28;20045;-81
2021/04/22 08:41:19;;;;;;;19.75;14.52;;;11.30;89.40;;;;;;5039610;28;20056;-79
2021/04/22 08:43:48;;;;;;;21.95;16.15;;;11.40;89.30;;;;;;5039714;28;20056;-79
2021/04/22 08:46:17;;;;;;;15.50;12.98;;;12.40;83.80;;;;;;5037295;28;20036;-79
2021/04/22 08:48:46;;;;;;;17.02;12.80;;;13.10;83.10;;;;;;5038461;28;20041;-78
2021/04/22 08:51:14;;;;;;;15.93;14.07;;;13.10;82.40;;;;;;5037213;28;20049;-80
2021/04/22 08:53:45;;;;;;;19.60;14.45;;;12.50;86.40;;;;;;5038572;28;20397;-80
2021/04/22 08:56:14;;;;;;;;;;;12.90;83.20;;;;;;5041051;28;20553;-79
2021/04/22 08:58:42;;;;;;;17.08;14.10;;;13.40;81.40;;;;;;5039772;28;19927;-79
2021/04/22 09:01:13;;;;;;;19.55;15.00;;;13.20;83.30;;;;;;5043306;28;20374;-79
2021/04/22 09:03:44;;;;;;;14.23;12.43;;;12.40;83.20;;;;;;5042443;28;20038;-78
2021/04/22 09:06:13;;;;;;;19.07;14.00;;;12.10;83.80;;;;;;5041240;28;20052;-81
2021/04/22 09:08:50;;;;;;;17.83;14.32;;;11.90;88.30;;;;;;5042813;28;20648;-80
2021/04/22 09:11:24;;;;;;;19.95;14.18;;;12.10;87.50;;;;;;5043434;28;20048;-80
2021/04/22 09:13:53;;;;;;;18.20;15.82;;;12.10;88.40;;;;;;5042954;28;20060;-81
2021/04/22 09:16:26;;;;;;;27.58;20.33;;;11.90;89.90;;;;;;5040640;28;20048;-79
2021/04/22 09:18:57;;;;;;;26.20;21.17;;;11.60;90.60;;;;;;5040845;28;20037;-80
2021/04/22 09:21:34;;;;;;;19.90;16.33;;;11.40;89.90;;;;;;5044809;28;20382;-79
2021/04/22 09:24:14;;;;;;;23.98;16.75;;;11.60;90.70;;;;;;5057061;28;20037;-80
2021/04/22 09:27:04;;;;;;;21.85;17.15;;;12.00;88.50;;;;;;5043407;28;20033;-79
2021/04/22 09:29:35;;;;;;;21.13;17.80;;;12.00;88.30;;;;;;5042835;28;20072;-78
2021/04/22 09:32:24;;;;;;;20.92;16.65;;;12.30;88.50;;;;;;5041091;28;20057;-81
2021/04/22 09:34:59;;;;;;;21.35;16.83;;;12.20;89.80;;;;;;5044879;28;20037;-79
2021/04/22 09:37:48;;;;;;;26.00;18.00;;;12.10;89.90;;;;;;5041611;28;20048;-80
2021/04/22 09:40:22;;;;;;;20.27;17.45;;;12.30;87.90;;;;;;5043712;28;20041;-78
2021/04/22 09:42:51;;;;;;;23.02;20.63;;;12.20;87.90;;;;;;5039624;28;20486;-81
2021/04/22 09:45:22;;;;;;;22.23;19.63;;;11.80;88.40;;;;;;5042520;28;20064;-78
2021/04/22 09:48:00;;;;;;;24.67;18.15;;;11.50;89.60;;;;;;5041110;28;20042;-80
2021/04/22 09:50:29;;;;;;;23.40;17.17;;;11.70;90.10;;;;;;5026078;28;20056;-80
2021/04/22 09:52:59;;;;;;;24.23;17.05;;;11.80;88.50;;;;;;5023109;28;20057;-80
2021/04/22 09:55:32;;;;;;;24.20;21.52;;;11.90;88.10;;;;;;5038222;28;20045;-79
2021/04/22 09:58:04;;;;;;;24.35;17.83;;;12.10;87.00;;;;;;5039286;28;20042;-80
2021/04/22 10:00:33;;;;;;;22.88;18.88;;;12.20;85.60;;;;;;5040089;28;20040;-79
2021/04/22 10:03:10;;;;;;;25.73;16.58;;;12.30;87.60;;;;;;5041651;28;20037;-80
2021/04/22 10:05:40;;;;;;;21.85;16.63;;;12.40;87.30;;;;;;5041541;28;20514;-79
2021/04/22 10:08:13;;;;;;;24.15;17.73;;;12.40;86.00;;;;;;5041648;28;20060;-79
2021/04/22 10:11:01;;;;;;;23.05;16.73;;;12.30;84.30;;;;;;5038212;28;20049;-78
2021/04/22 10:13:47;;;;;;;18.73;15.90;;;12.00;86.10;;;;;;5041563;28;20053;-80
2021/04/22 10:16:17;;;;;;;23.80;17.08;;;12.40;84.70;;;;;;5039730;28;20395;-79
2021/04/22 10:18:46;;;;;;;21.52;17.88;;;12.60;84.30;;;;;;5040832;28;20045;-79
2021/04/22 10:21:15;;;;;;;23.00;20.00;;;12.60;84.10;;;;;;5042273;28;20502;-78
2021/04/22 10:23:43;;;;;;;29.50;19.17;;;12.30;82.40;;;;;;5040257;28;20038;-78
2021/04/22 10:26:19;;;;;;;21.35;17.42;;;12.40;81.70;;;;;;5040286;28;20360;-79
2021/04/22 10:28:47;;;;;;;31.85;21.30;;;12.30;83.50;;;;;;5040521;28;20045;-79
2021/04/22 10:31:15;;;;;;;26.80;22.23;;;12.30;86.00;;;;;;5038474;28;20048;-78
2021/04/22 10:33:42;;;;;;;24.33;19.25;;;12.10;87.80;;;;;;5041600;28;20483;-76
2021/04/22 10:36:12;;;;;;;23.67;19.38;;;12.00;88.60;;;;;;5041103;28;20057;-79
2021/04/22 10:38:40;;;;;;;25.02;20.00;;;11.90;88.50;;;;;;5039887;28;20049;-79
2021/04/22 10:41:08;;;;;;;28.60;20.23;;;11.90;90.60;;;;;;5040693;28;20079;-79
2021/04/22 10:43:37;;;;;;;24.77;20.13;;;12.20;87.10;;;;;;5041310;28;20565;-79
2021/04/22 10:46:04;;;;;;;28.33;21.83;;;12.70;89.10;;;;;;5039519;28;20041;-79
2021/04/22 10:48:32;;;;;;;25.95;20.35;;;13.20;85.80;;;;;;5040790;28;20128;-81
2021/04/22 10:51:00;;;;;;;23.92;20.95;;;12.80;82.40;;;;;;5037558;28;20037;-80
2021/04/22 10:53:28;;;;;;;25.20;21.02;;;12.60;84.50;;;;;;5023230;28;20053;-80
2021/04/22 10:55:57;;;;;;;25.13;21.10;;;12.50;85.40;;;;;;5040580;28;20064;-81
2021/04/22 10:58:32;;;;;;;23.13;20.38;;;12.70;83.20;;;;;;5041370;28;20041;-80
2021/04/22 11:01:09;;;;;;;25.02;18.45;;;12.70;83.80;;;;;;5040791;28;20053;-79
2021/04/22 11:03:42;;;;;;;26.42;21.10;;;12.50;88.70;;;;;;5040587;28;20045;-79
2021/04/22 11:06:14;;;;;;;23.52;20.48;;;12.40;89.70;;;;;;5041287;28;20049;-80
2021/04/22 11:08:45;;;;;;;25.75;20.15;;;12.10;85.50;;;;;;5039573;28;20057;-79
2021/04/22 11:11:16;;;;;;;22.30;18.92;;;12.20;87.60;;;;;;5039495;28;20057;-79
2021/04/22 11:13:44;;;;;;;23.67;19.25;;;12.60;86.50;;;;;;5041108;28;20049;-79
2021/04/22 11:16:12;;;;;;;30.20;24.05;;;12.90;87.60;;;;;;5040231;28;20478;-82
2021/04/22 11:18:45;;;;;;;30.17;21.10;;;13.10;86.50;;;;;;5021179;28;20040;-81
2021/04/22 11:21:26;;;;;;;24.20;20.48;;;13.20;83.00;;;;;;5038769;28;20493;-85
2021/04/22 11:24:03;;;;;;;30.17;20.77;;;13.50;81.80;;;;;;5021842;28;20045;-84
2021/04/22 11:26:36;;;;;;;21.02;18.80;;;13.50;78.50;;;;;;5023487;28;20041;-84
2021/04/22 11:29:19;;;;;;;24.27;21.67;;;13.30;82.00;;;;;;5023340;28;20049;-83
2021/04/22 11:31:52;;;;;;;23.75;21.25;;;12.90;83.80;;;;;;5040822;28;20057;-81
2021/04/22 11:34:34;;;;;;;28.40;25.35;;;12.80;85.90;;;;;;5037344;28;20044;-79
2021/04/22 11:37:13;;;;;;;29.45;22.98;;;12.30;85.90;;;;;;5041274;28;20065;-81
2021/04/22 11:39:41;;;;;;;30.20;25.77;;;12.50;82.70;;;;;;5029772;28;20033;-79
2021/04/22 11:42:09;;;;;;;24.35;21.23;;;12.20;83.50;;;;;;5038514;28;20046;-78
2021/04/22 11:44:42;;;;;;;35.55;24.90;;;12.50;87.90;;;;;;5037954;28;20045;-81
2021/04/22 11:47:15;;;;;;;25.98;21.63;;;12.20;81.50;;;;;;5038973;28;20077;-82
2021/04/22 11:49:43;;;;;;;29.67;25.15;;;12.00;84.70;;;;;;5040835;28;20087;-83
2021/04/22 11:52:46;;;;;;;29.88;24.35;;;12.20;86.40;;;;;;5040782;28;20057;-83
2021/04/22 11:55:21;;;;;;;28.80;23.60;;;12.20;84.50;;;;;;5038000;28;20414;-80
2021/04/22 11:58:10;;;;;;;31.42;26.83;;;12.40;86.00;;;;;;5039145;28;20030;-78
2021/04/22 12:00:49;;;;;;;36.10;24.73;;;12.40;82.00;;;;;;5040216;28;20053;-80
2021/04/22 12:03:22;;;;;;;37.25;26.10;;;12.30;84.10;;;;;;5039532;28;20065;-80
2021/04/22 12:05:51;;;;;;;33.05;25.17;;;12.30;87.90;;;;;;5039208;28;20042;-81
2021/04/22 12:08:25;;;;;;;27.17;23.85;;;12.70;85.40;;;;;;5039367;28;20525;-81
2021/04/22 12:10:53;;;;;;;30.63;26.67;;;12.80;84.80;;;;;;5038655;28;20052;-80
2021/04/22 12:13:22;;;;;;;32.97;26.10;;;13.10;83.80;;;;;;5038621;28;20049;-82
2021/04/22 12:15:52;;;;;;;32.47;24.92;;;13.40;76.60;;;;;;5038654;28;20045;-80
2021/04/22 12:18:41;;;;;;;37.63;27.10;;;13.20;81.30;;;;;;5038653;28;20060;-80
2021/04/22 12:21:08;;;;;;;29.98;25.27;;;13.90;76.10;;;;;;5040519;28;20487;-80
2021/04/22 12:23:39;;;;;;;34.28;24.42;;;13.50;78.10;;;;;;5039362;28;20390;-80
2021/04/22 12:26:26;;;;;;;32.55;28.92;;;12.90;79.10;;;;;;5039585;28;20053;-80
2021/04/22 12:29:04;;;;;;;33.60;29.38;;;12.40;75.00;;;;;;5039088;28;20050;-81
2021/04/22 12:31:35;;;;;;;44.40;39.38;;;12.20;78.40;;;;;;5038600;28;20390;-79
2021/04/22 12:34:32;;;;;;;34.90;30.27;;;12.00;79.40;;;;;;5020989;28;20053;-83
2021/04/22 12:37:00;;;;;;;43.67;36.00;;;12.00;80.50;;;;;;5040950;28;20040;-79
2021/04/22 12:39:30;;;;;;;30.08;23.92;;;12.10;79.30;;;;;;5043923;28;20047;-80
2021/04/22 12:42:15;;;;;;;32.88;23.35;;;12.50;80.30;;;;;;5041174;28;20037;-80
2021/04/22 12:45:06;;;;;;;31.67;27.50;;;12.80;79.70;;;;;;5043585;28;20052;-84
2021/04/22 12:47:41;;;;;;;36.38;24.50;;;12.30;78.70;;;;;;5042629;28;20037;-79
2021/04/22 12:50:22;;;;;;;32.35;22.00;;;12.50;79.90;;;;;;5041188;28;20059;-80
2021/04/22 12:53:08;;;;;;;;;;;12.90;79.90;;;;;;5043207;28;20057;-80